sensor_id;sensor_type;location;lat;lon;timestamp;P1;durP1;ratioP1;P2;durP2;ratioP2
25349;SDS011;13302;48.796;11.978;2024-02-23T00:00:41;0.30;;;0.30;;
25349;SDS011;13302;48.796;11.978;2024-02-23T00:03:28;0.30;;;0.30;;
25349;SDS011;13302;48.796;11.978;2024-02-23T00:06:15;1.10;;;0.20;;
25349;SDS011;13302;48.796;11.978;2024-02-23T00:09:02;0.30;;;0.30;;
25349;SDS011;13302;48.796;11.978;2024-02-23T00:11:49;0.20;;;0.20;;
25349;SDS011;13302;48.796;11.978;2024-02-23T00:14:37;0.10;;;0.10;;
25349;SDS011;13302;48.796;11.978;2024-02-23T00:17:24;0.40;;;0.40;;
25349;SDS011;13302;48.796;11.978;2024-02-23T00:20:11;0.40;;;0.40;;
25349;SDS011;13302;48.796;11.978;2024-02-23T00:22:58;0.33;;;0.33;;
25349;SDS011;13302;48.796;11.978;2024-02-23T00:25:45;0.40;;;0.40;;
25349;SDS011;13302;48.796;11.978;2024-02-23T00:28:32;0.30;;;0.30;;
25349;SDS011;13302;48.796;11.978;2024-02-23T00:31:19;0.30;;;0.30;;
25349;SDS011;13302;48.796;11.978;2024-02-23T00:34:07;0.30;;;0.30;;
25349;SDS011;13302;48.796;11.978;2024-02-23T00:36:57;0.30;;;0.30;;
25349;SDS011;13302;48.796;11.978;2024-02-23T00:39:44;0.20;;;0.20;;
25349;SDS011;13302;48.796;11.978;2024-02-23T00:42:32;0.20;;;0.20;;
25349;SDS011;13302;48.796;11.978;2024-02-23T00:45:19;0.30;;;0.30;;
25349;SDS011;13302;48.796;11.978;2024-02-23T00:48:06;0.33;;;0.33;;
25349;SDS011;13302;48.796;11.978;2024-02-23T00:50:53;0.27;;;0.27;;
25349;SDS011;13302;48.796;11.978;2024-02-23T00:53:40;0.30;;;0.30;;
25349;SDS011;13302;48.796;11.978;2024-02-23T00:56:27;0.40;;;0.20;;
25349;SDS011;13302;48.796;11.978;2024-02-23T00:59:26;0.30;;;0.30;;
25349;SDS011;13302;48.796;11.978;2024-02-23T01:02:13;0.17;;;0.17;;
25349;SDS011;13302;48.796;11.978;2024-02-23T01:05:00;0.30;;;0.30;;
25349;SDS011;13302;48.796;11.978;2024-02-23T01:07:49;0.47;;;0.47;;
25349;SDS011;13302;48.796;11.978;2024-02-23T01:10:36;0.20;;;0.20;;
25349;SDS011;13302;48.796;11.978;2024-02-23T01:13:23;0.17;;;0.17;;
25349;SDS011;13302;48.796;11.978;2024-02-23T01:16:10;0.20;;;0.20;;
25349;SDS011;13302;48.796;11.978;2024-02-23T01:18:57;0.10;;;0.10;;
25349;SDS011;13302;48.796;11.978;2024-02-23T01:21:44;0.30;;;0.30;;
25349;SDS011;13302;48.796;11.978;2024-02-23T01:24:31;0.23;;;0.23;;
25349;SDS011;13302;48.796;11.978;2024-02-23T01:27:19;0.20;;;0.20;;
25349;SDS011;13302;48.796;11.978;2024-02-23T01:30:06;0.27;;;0.27;;
25349;SDS011;13302;48.796;11.978;2024-02-23T01:32:54;0.10;;;0.10;;
25349;SDS011;13302;48.796;11.978;2024-02-23T01:35:41;0.23;;;0.20;;
25349;SDS011;13302;48.796;11.978;2024-02-23T01:38:28;0.30;;;0.30;;
25349;SDS011;13302;48.796;11.978;2024-02-23T01:41:19;0.20;;;0.20;;
25349;SDS011;13302;48.796;11.978;2024-02-23T01:44:06;0.63;;;0.33;;
25349;SDS011;13302;48.796;11.978;2024-02-23T01:46:53;0.20;;;0.20;;
25349;SDS011;13302;48.796;11.978;2024-02-23T01:49:40;0.47;;;0.20;;
25349;SDS011;13302;48.796;11.978;2024-02-23T01:52:28;1.23;;;0.27;;
25349;SDS011;13302;48.796;11.978;2024-02-23T01:55:15;0.10;;;0.10;;
25349;SDS011;13302;48.796;11.978;2024-02-23T01:58:03;0.37;;;0.13;;
25349;SDS011;13302;48.796;11.978;2024-02-23T02:00:54;0.20;;;0.20;;
25349;SDS011;13302;48.796;11.978;2024-02-23T02:03:41;0.30;;;0.30;;
25349;SDS011;13302;48.796;11.978;2024-02-23T02:06:29;0.40;;;0.10;;
25349;SDS011;13302;48.796;11.978;2024-02-23T02:09:17;0.10;;;0.10;;
25349;SDS011;13302;48.796;11.978;2024-02-23T02:12:04;0.20;;;0.20;;
25349;SDS011;13302;48.796;11.978;2024-02-23T02:14:51;0.20;;;0.10;;
25349;SDS011;13302;48.796;11.978;2024-02-23T02:17:38;0.10;;;0.10;;
25349;SDS011;13302;48.796;11.978;2024-02-23T02:20:25;0.00;;;0.00;;
25349;SDS011;13302;48.796;11.978;2024-02-23T02:23:15;0.10;;;0.10;;
25349;SDS011;13302;48.796;11.978;2024-02-23T02:26:02;0.20;;;0.20;;
25349;SDS011;13302;48.796;11.978;2024-02-23T02:28:50;0.10;;;0.10;;
25349;SDS011;13302;48.796;11.978;2024-02-23T02:31:37;0.67;;;0.17;;
25349;SDS011;13302;48.796;11.978;2024-02-23T02:34:24;0.30;;;0.20;;
25349;SDS011;13302;48.796;11.978;2024-02-23T02:37:11;0.20;;;0.20;;
25349;SDS011;13302;48.796;11.978;2024-02-23T02:39:58;0.10;;;0.10;;
25349;SDS011;13302;48.796;11.978;2024-02-23T02:42:45;0.30;;;0.20;;
25349;SDS011;13302;48.796;11.978;2024-02-23T02:45:32;0.10;;;0.10;;
25349;SDS011;13302;48.796;11.978;2024-02-23T02:48:19;0.63;;;0.30;;
25349;SDS011;13302;48.796;11.978;2024-02-23T02:51:07;0.10;;;0.10;;
25349;SDS011;13302;48.796;11.978;2024-02-23T02:53:54;0.50;;;0.10;;
25349;SDS011;13302;48.796;11.978;2024-02-23T02:56:44;0.20;;;0.20;;
25349;SDS011;13302;48.796;11.978;2024-02-23T02:59:35;0.10;;;0.10;;
25349;SDS011;13302;48.796;11.978;2024-02-23T03:02:23;0.20;;;0.20;;
25349;SDS011;13302;48.796;11.978;2024-02-23T03:05:10;0.20;;;0.10;;
25349;SDS011;13302;48.796;11.978;2024-02-23T03:07:57;1.90;;;0.20;;
25349;SDS011;13302;48.796;11.978;2024-02-23T03:10:44;0.20;;;0.20;;
25349;SDS011;13302;48.796;11.978;2024-02-23T03:13:32;0.10;;;0.10;;
25349;SDS011;13302;48.796;11.978;2024-02-23T03:16:20;0.27;;;0.20;;
25349;SDS011;13302;48.796;11.978;2024-02-23T03:19:10;0.70;;;0.30;;
25349;SDS011;13302;48.796;11.978;2024-02-23T03:21:57;0.30;;;0.23;;
25349;SDS011;13302;48.796;11.978;2024-02-23T03:24:44;0.27;;;0.20;;
25349;SDS011;13302;48.796;11.978;2024-02-23T03:27:31;0.10;;;0.10;;
25349;SDS011;13302;48.796;11.978;2024-02-23T03:30:18;0.57;;;0.20;;
25349;SDS011;13302;48.796;11.978;2024-02-23T03:33:05;0.20;;;0.20;;
25349;SDS011;13302;48.796;11.978;2024-02-23T03:35:52;0.40;;;0.27;;
25349;SDS011;13302;48.796;11.978;2024-02-23T03:38:39;0.47;;;0.20;;
25349;SDS011;13302;48.796;11.978;2024-02-23T03:41:27;0.63;;;0.20;;
25349;SDS011;13302;48.796;11.978;2024-02-23T03:44:14;0.30;;;0.30;;
25349;SDS011;13302;48.796;11.978;2024-02-23T03:47:01;0.30;;;0.20;;
25349;SDS011;13302;48.796;11.978;2024-02-23T03:49:49;0.67;;;0.30;;
25349;SDS011;13302;48.796;11.978;2024-02-23T03:52:36;0.17;;;0.17;;
25349;SDS011;13302;48.796;11.978;2024-02-23T03:55:23;0.57;;;0.27;;
25349;SDS011;13302;48.796;11.978;2024-02-23T03:58:10;0.20;;;0.20;;
25349;SDS011;13302;48.796;11.978;2024-02-23T04:00:57;0.27;;;0.27;;
25349;SDS011;13302;48.796;11.978;2024-02-23T04:03:44;0.10;;;0.10;;
25349;SDS011;13302;48.796;11.978;2024-02-23T04:06:31;0.30;;;0.23;;
25349;SDS011;13302;48.796;11.978;2024-02-23T04:09:20;0.10;;;0.10;;
25349;SDS011;13302;48.796;11.978;2024-02-23T04:12:07;0.20;;;0.20;;
25349;SDS011;13302;48.796;11.978;2024-02-23T04:14:54;0.20;;;0.20;;
25349;SDS011;13302;48.796;11.978;2024-02-23T04:17:41;0.30;;;0.20;;
25349;SDS011;13302;48.796;11.978;2024-02-23T04:20:29;0.73;;;0.37;;
25349;SDS011;13302;48.796;11.978;2024-02-23T04:23:16;0.10;;;0.10;;
25349;SDS011;13302;48.796;11.978;2024-02-23T04:26:03;0.10;;;0.10;;
25349;SDS011;13302;48.796;11.978;2024-02-23T04:28:50;0.47;;;0.47;;
25349;SDS011;13302;48.796;11.978;2024-02-23T04:31:37;0.67;;;0.30;;
25349;SDS011;13302;48.796;11.978;2024-02-23T04:34:25;0.10;;;0.10;;
25349;SDS011;13302;48.796;11.978;2024-02-23T04:37:12;0.30;;;0.30;;
25349;SDS011;13302;48.796;11.978;2024-02-23T04:39:59;0.20;;;0.20;;
25349;SDS011;13302;48.796;11.978;2024-02-23T04:42:46;0.20;;;0.20;;
25349;SDS011;13302;48.796;11.978;2024-02-23T04:45:34;0.43;;;0.27;;
25349;SDS011;13302;48.796;11.978;2024-02-23T04:48:21;0.63;;;0.40;;
25349;SDS011;13302;48.796;11.978;2024-02-23T04:51:08;0.47;;;0.30;;
25349;SDS011;13302;48.796;11.978;2024-02-23T04:53:57;0.33;;;0.33;;
25349;SDS011;13302;48.796;11.978;2024-02-23T04:56:44;0.13;;;0.13;;
25349;SDS011;13302;48.796;11.978;2024-02-23T04:59:32;0.30;;;0.17;;
25349;SDS011;13302;48.796;11.978;2024-02-23T05:02:19;1.20;;;0.23;;
25349;SDS011;13302;48.796;11.978;2024-02-23T05:05:06;0.30;;;0.30;;
25349;SDS011;13302;48.796;11.978;2024-02-23T05:07:54;0.20;;;0.20;;
25349;SDS011;13302;48.796;11.978;2024-02-23T05:10:41;0.17;;;0.17;;
25349;SDS011;13302;48.796;11.978;2024-02-23T05:13:28;0.20;;;0.20;;
25349;SDS011;13302;48.796;11.978;2024-02-23T05:16:16;0.20;;;0.20;;
25349;SDS011;13302;48.796;11.978;2024-02-23T05:19:03;0.37;;;0.37;;
25349;SDS011;13302;48.796;11.978;2024-02-23T05:21:50;0.73;;;0.30;;
25349;SDS011;13302;48.796;11.978;2024-02-23T05:24:37;0.60;;;0.40;;
25349;SDS011;13302;48.796;11.978;2024-02-23T05:27:25;0.17;;;0.17;;
25349;SDS011;13302;48.796;11.978;2024-02-23T05:30:14;0.20;;;0.20;;
25349;SDS011;13302;48.796;11.978;2024-02-23T05:33:01;0.20;;;0.20;;
25349;SDS011;13302;48.796;11.978;2024-02-23T05:35:50;0.30;;;0.30;;
25349;SDS011;13302;48.796;11.978;2024-02-23T05:38:37;0.37;;;0.37;;
25349;SDS011;13302;48.796;11.978;2024-02-23T05:41:25;0.23;;;0.23;;
25349;SDS011;13302;48.796;11.978;2024-02-23T05:44:12;0.20;;;0.20;;
25349;SDS011;13302;48.796;11.978;2024-02-23T05:47:00;0.30;;;0.20;;
25349;SDS011;13302;48.796;11.978;2024-02-23T05:49:47;0.30;;;0.30;;
25349;SDS011;13302;48.796;11.978;2024-02-23T05:52:34;1.03;;;0.20;;
25349;SDS011;13302;48.796;11.978;2024-02-23T05:55:23;0.30;;;0.30;;
25349;SDS011;13302;48.796;11.978;2024-02-23T05:58:10;0.20;;;0.20;;
25349;SDS011;13302;48.796;11.978;2024-02-23T06:00:57;0.67;;;0.30;;
25349;SDS011;13302;48.796;11.978;2024-02-23T06:03:44;0.30;;;0.30;;
25349;SDS011;13302;48.796;11.978;2024-02-23T06:06:31;0.20;;;0.20;;
25349;SDS011;13302;48.796;11.978;2024-02-23T06:09:19;0.40;;;0.40;;
25349;SDS011;13302;48.796;11.978;2024-02-23T06:12:06;0.17;;;0.17;;
25349;SDS011;13302;48.796;11.978;2024-02-23T06:14:54;0.40;;;0.40;;
25349;SDS011;13302;48.796;11.978;2024-02-23T06:17:43;0.40;;;0.30;;
25349;SDS011;13302;48.796;11.978;2024-02-23T06:20:31;0.30;;;0.30;;
25349;SDS011;13302;48.796;11.978;2024-02-23T06:23:19;0.53;;;0.30;;
25349;SDS011;13302;48.796;11.978;2024-02-23T06:26:09;0.20;;;0.20;;
25349;SDS011;13302;48.796;11.978;2024-02-23T06:28:56;1.50;;;0.40;;
25349;SDS011;13302;48.796;11.978;2024-02-23T06:31:43;0.17;;;0.17;;
25349;SDS011;13302;48.796;11.978;2024-02-23T06:34:35;0.20;;;0.20;;
25349;SDS011;13302;48.796;11.978;2024-02-23T06:37:23;0.53;;;0.30;;
25349;SDS011;13302;48.796;11.978;2024-02-23T06:40:10;0.30;;;0.30;;
25349;SDS011;13302;48.796;11.978;2024-02-23T06:42:57;0.23;;;0.23;;
25349;SDS011;13302;48.796;11.978;2024-02-23T06:45:44;0.30;;;0.30;;
25349;SDS011;13302;48.796;11.978;2024-02-23T06:48:31;0.53;;;0.20;;
25349;SDS011;13302;48.796;11.978;2024-02-23T06:51:19;0.27;;;0.27;;
25349;SDS011;13302;48.796;11.978;2024-02-23T06:54:07;0.27;;;0.27;;
25349;SDS011;13302;48.796;11.978;2024-02-23T06:56:54;0.50;;;0.50;;
25349;SDS011;13302;48.796;11.978;2024-02-23T06:59:42;0.43;;;0.43;;
25349;SDS011;13302;48.796;11.978;2024-02-23T07:02:29;0.50;;;0.50;;
25349;SDS011;13302;48.796;11.978;2024-02-23T07:05:18;0.33;;;0.33;;
25349;SDS011;13302;48.796;11.978;2024-02-23T07:08:05;0.53;;;0.43;;
25349;SDS011;13302;48.796;11.978;2024-02-23T07:10:53;0.37;;;0.37;;
25349;SDS011;13302;48.796;11.978;2024-02-23T07:13:42;0.20;;;0.20;;
25349;SDS011;13302;48.796;11.978;2024-02-23T07:16:30;0.33;;;0.33;;
25349;SDS011;13302;48.796;11.978;2024-02-23T07:19:17;1.13;;;0.30;;
25349;SDS011;13302;48.796;11.978;2024-02-23T07:22:04;0.40;;;0.40;;
25349;SDS011;13302;48.796;11.978;2024-02-23T07:24:51;0.93;;;0.40;;
25349;SDS011;13302;48.796;11.978;2024-02-23T07:27:38;0.30;;;0.30;;
25349;SDS011;13302;48.796;11.978;2024-02-23T07:30:25;0.40;;;0.40;;
25349;SDS011;13302;48.796;11.978;2024-02-23T07:33:13;0.40;;;0.40;;
25349;SDS011;13302;48.796;11.978;2024-02-23T07:36:00;0.40;;;0.40;;
25349;SDS011;13302;48.796;11.978;2024-02-23T07:38:47;0.40;;;0.40;;
25349;SDS011;13302;48.796;11.978;2024-02-23T07:41:34;0.40;;;0.40;;
25349;SDS011;13302;48.796;11.978;2024-02-23T07:44:21;0.77;;;0.40;;
25349;SDS011;13302;48.796;11.978;2024-02-23T07:47:08;0.20;;;0.20;;
25349;SDS011;13302;48.796;11.978;2024-02-23T07:49:55;0.40;;;0.40;;
25349;SDS011;13302;48.796;11.978;2024-02-23T07:52:43;0.63;;;0.53;;
25349;SDS011;13302;48.796;11.978;2024-02-23T07:55:30;0.70;;;0.30;;
25349;SDS011;13302;48.796;11.978;2024-02-23T07:58:17;0.47;;;0.47;;
25349;SDS011;13302;48.796;11.978;2024-02-23T08:01:04;0.50;;;0.50;;
25349;SDS011;13302;48.796;11.978;2024-02-23T08:03:51;0.30;;;0.30;;
25349;SDS011;13302;48.796;11.978;2024-02-23T08:06:38;0.60;;;0.60;;
25349;SDS011;13302;48.796;11.978;2024-02-23T08:09:26;0.57;;;0.40;;
25349;SDS011;13302;48.796;11.978;2024-02-23T08:12:13;0.20;;;0.20;;
25349;SDS011;13302;48.796;11.978;2024-02-23T08:15:01;0.40;;;0.40;;
25349;SDS011;13302;48.796;11.978;2024-02-23T08:17:48;0.37;;;0.37;;
25349;SDS011;13302;48.796;11.978;2024-02-23T08:20:36;0.40;;;0.40;;
25349;SDS011;13302;48.796;11.978;2024-02-23T08:23:23;0.37;;;0.37;;
25349;SDS011;13302;48.796;11.978;2024-02-23T08:26:11;0.33;;;0.33;;
25349;SDS011;13302;48.796;11.978;2024-02-23T08:28:58;1.03;;;0.40;;
25349;SDS011;13302;48.796;11.978;2024-02-23T08:31:46;0.30;;;0.30;;
25349;SDS011;13302;48.796;11.978;2024-02-23T08:34:33;0.30;;;0.30;;
25349;SDS011;13302;48.796;11.978;2024-02-23T08:37:20;1.10;;;0.50;;
25349;SDS011;13302;48.796;11.978;2024-02-23T08:40:08;0.80;;;0.50;;
25349;SDS011;13302;48.796;11.978;2024-02-23T08:42:56;0.40;;;0.40;;
25349;SDS011;13302;48.796;11.978;2024-02-23T08:45:43;0.40;;;0.40;;
25349;SDS011;13302;48.796;11.978;2024-02-23T08:48:30;0.50;;;0.50;;
25349;SDS011;13302;48.796;11.978;2024-02-23T08:51:17;0.50;;;0.50;;
25349;SDS011;13302;48.796;11.978;2024-02-23T08:54:04;0.40;;;0.40;;
25349;SDS011;13302;48.796;11.978;2024-02-23T08:56:53;0.70;;;0.70;;
25349;SDS011;13302;48.796;11.978;2024-02-23T08:59:40;0.40;;;0.40;;
25349;SDS011;13302;48.796;11.978;2024-02-23T09:02:27;0.50;;;0.50;;
25349;SDS011;13302;48.796;11.978;2024-02-23T09:05:14;0.70;;;0.50;;
25349;SDS011;13302;48.796;11.978;2024-02-23T09:08:02;1.80;;;0.50;;
25349;SDS011;13302;48.796;11.978;2024-02-23T09:10:49;0.40;;;0.40;;
25349;SDS011;13302;48.796;11.978;2024-02-23T09:13:36;0.47;;;0.47;;
25349;SDS011;13302;48.796;11.978;2024-02-23T09:16:23;0.60;;;0.60;;
25349;SDS011;13302;48.796;11.978;2024-02-23T09:19:11;1.27;;;0.50;;
25349;SDS011;13302;48.796;11.978;2024-02-23T09:21:59;1.10;;;0.50;;
25349;SDS011;13302;48.796;11.978;2024-02-23T09:24:47;0.60;;;0.60;;
25349;SDS011;13302;48.796;11.978;2024-02-23T09:27:34;0.40;;;0.40;;
25349;SDS011;13302;48.796;11.978;2024-02-23T09:30:25;0.40;;;0.40;;
25349;SDS011;13302;48.796;11.978;2024-02-23T09:33:12;0.47;;;0.47;;
25349;SDS011;13302;48.796;11.978;2024-02-23T09:36:00;0.40;;;0.40;;
25349;SDS011;13302;48.796;11.978;2024-02-23T09:38:47;0.43;;;0.43;;
25349;SDS011;13302;48.796;11.978;2024-02-23T09:41:35;0.43;;;0.40;;
25349;SDS011;13302;48.796;11.978;2024-02-23T09:44:34;0.43;;;0.43;;
25349;SDS011;13302;48.796;11.978;2024-02-23T09:47:22;1.10;;;0.60;;
25349;SDS011;13302;48.796;11.978;2024-02-23T09:50:11;0.33;;;0.33;;
25349;SDS011;13302;48.796;11.978;2024-02-23T09:52:59;0.40;;;0.40;;
25349;SDS011;13302;48.796;11.978;2024-02-23T09:55:49;0.50;;;0.50;;
25349;SDS011;13302;48.796;11.978;2024-02-23T09:58:39;0.60;;;0.53;;
25349;SDS011;13302;48.796;11.978;2024-02-23T10:01:29;0.50;;;0.40;;
25349;SDS011;13302;48.796;11.978;2024-02-23T10:04:20;0.70;;;0.70;;
25349;SDS011;13302;48.796;11.978;2024-02-23T10:07:07;0.50;;;0.50;;
25349;SDS011;13302;48.796;11.978;2024-02-23T10:09:55;0.70;;;0.70;;
25349;SDS011;13302;48.796;11.978;2024-02-23T10:12:42;0.60;;;0.60;;
25349;SDS011;13302;48.796;11.978;2024-02-23T10:15:29;0.80;;;0.80;;
25349;SDS011;13302;48.796;11.978;2024-02-23T10:18:17;1.00;;;1.00;;
25349;SDS011;13302;48.796;11.978;2024-02-23T10:21:05;1.00;;;1.00;;
25349;SDS011;13302;48.796;11.978;2024-02-23T10:23:53;1.53;;;1.40;;
25349;SDS011;13302;48.796;11.978;2024-02-23T10:26:40;1.60;;;1.50;;
25349;SDS011;13302;48.796;11.978;2024-02-23T10:29:27;1.23;;;1.13;;
25349;SDS011;13302;48.796;11.978;2024-02-23T10:32:14;1.00;;;1.00;;
25349;SDS011;13302;48.796;11.978;2024-02-23T10:35:02;0.87;;;0.80;;
25349;SDS011;13302;48.796;11.978;2024-02-23T10:37:52;0.80;;;0.80;;
25349;SDS011;13302;48.796;11.978;2024-02-23T10:40:40;0.70;;;0.70;;
25349;SDS011;13302;48.796;11.978;2024-02-23T10:43:38;0.57;;;0.57;;
25349;SDS011;13302;48.796;11.978;2024-02-23T10:46:29;0.77;;;0.77;;
25349;SDS011;13302;48.796;11.978;2024-02-23T10:49:18;0.73;;;0.50;;
25349;SDS011;13302;48.796;11.978;2024-02-23T10:52:09;0.80;;;0.50;;
25349;SDS011;13302;48.796;11.978;2024-02-23T10:55:00;0.87;;;0.53;;
25349;SDS011;13302;48.796;11.978;2024-02-23T10:57:51;0.40;;;0.40;;
25349;SDS011;13302;48.796;11.978;2024-02-23T11:00:42;0.43;;;0.43;;
25349;SDS011;13302;48.796;11.978;2024-02-23T11:03:29;0.70;;;0.60;;
25349;SDS011;13302;48.796;11.978;2024-02-23T11:06:18;0.47;;;0.47;;
25349;SDS011;13302;48.796;11.978;2024-02-23T11:09:11;0.60;;;0.60;;
25349;SDS011;13302;48.796;11.978;2024-02-23T11:12:03;0.50;;;0.50;;
25349;SDS011;13302;48.796;11.978;2024-02-23T11:14:56;0.67;;;0.67;;
25349;SDS011;13302;48.796;11.978;2024-02-23T11:17:49;0.70;;;0.70;;
25349;SDS011;13302;48.796;11.978;2024-02-23T11:20:36;0.60;;;0.60;;
25349;SDS011;13302;48.796;11.978;2024-02-23T11:23:24;0.60;;;0.60;;
25349;SDS011;13302;48.796;11.978;2024-02-23T11:26:12;0.40;;;0.40;;
25349;SDS011;13302;48.796;11.978;2024-02-23T11:29:09;0.77;;;0.60;;
25349;SDS011;13302;48.796;11.978;2024-02-23T11:31:57;0.50;;;0.50;;
25349;SDS011;13302;48.796;11.978;2024-02-23T11:34:54;0.40;;;0.40;;
25349;SDS011;13302;48.796;11.978;2024-02-23T11:37:45;0.50;;;0.50;;
25349;SDS011;13302;48.796;11.978;2024-02-23T11:40:35;0.50;;;0.50;;
25349;SDS011;13302;48.796;11.978;2024-02-23T11:43:24;0.60;;;0.60;;
25349;SDS011;13302;48.796;11.978;2024-02-23T11:46:12;0.70;;;0.60;;
25349;SDS011;13302;48.796;11.978;2024-02-23T11:48:59;1.90;;;1.03;;
25349;SDS011;13302;48.796;11.978;2024-02-23T11:51:47;1.37;;;1.30;;
25349;SDS011;13302;48.796;11.978;2024-02-23T11:54:34;1.73;;;1.63;;
25349;SDS011;13302;48.796;11.978;2024-02-23T11:57:21;2.63;;;1.97;;
25349;SDS011;13302;48.796;11.978;2024-02-23T12:00:08;2.03;;;1.80;;
25349;SDS011;13302;48.796;11.978;2024-02-23T12:02:57;1.80;;;1.70;;
25349;SDS011;13302;48.796;11.978;2024-02-23T12:05:44;1.57;;;1.43;;
25349;SDS011;13302;48.796;11.978;2024-02-23T12:08:31;1.53;;;1.43;;
25349;SDS011;13302;48.796;11.978;2024-02-23T12:11:25;1.20;;;1.20;;
25349;SDS011;13302;48.796;11.978;2024-02-23T12:14:14;1.17;;;1.07;;
25349;SDS011;13302;48.796;11.978;2024-02-23T12:17:01;1.20;;;1.10;;
25349;SDS011;13302;48.796;11.978;2024-02-23T12:19:50;1.03;;;1.03;;
25349;SDS011;13302;48.796;11.978;2024-02-23T12:22:41;0.87;;;0.87;;
25349;SDS011;13302;48.796;11.978;2024-02-23T12:25:28;0.80;;;0.80;;
25349;SDS011;13302;48.796;11.978;2024-02-23T12:28:17;0.80;;;0.80;;
25349;SDS011;13302;48.796;11.978;2024-02-23T12:31:05;0.90;;;0.90;;
25349;SDS011;13302;48.796;11.978;2024-02-23T12:33:52;0.60;;;0.60;;
25349;SDS011;13302;48.796;11.978;2024-02-23T12:36:40;0.70;;;0.70;;
25349;SDS011;13302;48.796;11.978;2024-02-23T12:39:27;1.60;;;0.67;;
25349;SDS011;13302;48.796;11.978;2024-02-23T12:42:14;1.80;;;0.80;;
25349;SDS011;13302;48.796;11.978;2024-02-23T12:45:01;0.53;;;0.50;;
25349;SDS011;13302;48.796;11.978;2024-02-23T12:47:48;1.13;;;0.60;;
25349;SDS011;13302;48.796;11.978;2024-02-23T12:50:35;2.07;;;0.50;;
25349;SDS011;13302;48.796;11.978;2024-02-23T12:53:33;0.63;;;0.40;;
25349;SDS011;13302;48.796;11.978;2024-02-23T12:56:21;0.97;;;0.60;;
25349;SDS011;13302;48.796;11.978;2024-02-23T12:59:08;1.07;;;0.67;;
25349;SDS011;13302;48.796;11.978;2024-02-23T13:01:58;1.43;;;0.40;;
25349;SDS011;13302;48.796;11.978;2024-02-23T13:04:45;0.97;;;0.40;;
25349;SDS011;13302;48.796;11.978;2024-02-23T13:07:36;0.67;;;0.40;;
25349;SDS011;13302;48.796;11.978;2024-02-23T13:10:25;0.97;;;0.57;;
25349;SDS011;13302;48.796;11.978;2024-02-23T13:13:12;0.60;;;0.60;;
25349;SDS011;13302;48.796;11.978;2024-02-23T13:16:01;0.43;;;0.43;;
25349;SDS011;13302;48.796;11.978;2024-02-23T13:18:49;1.07;;;0.70;;
25349;SDS011;13302;48.796;11.978;2024-02-23T13:21:36;0.93;;;0.70;;
25349;SDS011;13302;48.796;11.978;2024-02-23T13:24:23;1.27;;;0.67;;
25349;SDS011;13302;48.796;11.978;2024-02-23T13:27:10;1.27;;;0.50;;
25349;SDS011;13302;48.796;11.978;2024-02-23T13:29:57;0.67;;;0.67;;
25349;SDS011;13302;48.796;11.978;2024-02-23T13:32:44;0.60;;;0.60;;
25349;SDS011;13302;48.796;11.978;2024-02-23T13:35:32;0.70;;;0.70;;
25349;SDS011;13302;48.796;11.978;2024-02-23T13:38:19;0.70;;;0.70;;
25349;SDS011;13302;48.796;11.978;2024-02-23T13:41:07;0.80;;;0.60;;
25349;SDS011;13302;48.796;11.978;2024-02-23T13:43:54;0.63;;;0.63;;
25349;SDS011;13302;48.796;11.978;2024-02-23T13:46:42;0.83;;;0.77;;
25349;SDS011;13302;48.796;11.978;2024-02-23T13:49:29;1.03;;;0.90;;
25349;SDS011;13302;48.796;11.978;2024-02-23T13:52:16;0.80;;;0.80;;
25349;SDS011;13302;48.796;11.978;2024-02-23T13:55:03;0.67;;;0.67;;
25349;SDS011;13302;48.796;11.978;2024-02-23T13:57:51;1.10;;;0.83;;
25349;SDS011;13302;48.796;11.978;2024-02-23T14:00:38;0.63;;;0.60;;
25349;SDS011;13302;48.796;11.978;2024-02-23T14:03:25;0.70;;;0.70;;
25349;SDS011;13302;48.796;11.978;2024-02-23T14:06:12;0.63;;;0.63;;
25349;SDS011;13302;48.796;11.978;2024-02-23T14:08:59;0.60;;;0.60;;
25349;SDS011;13302;48.796;11.978;2024-02-23T14:11:47;0.67;;;0.60;;
25349;SDS011;13302;48.796;11.978;2024-02-23T14:14:34;0.73;;;0.70;;
25349;SDS011;13302;48.796;11.978;2024-02-23T14:17:21;0.60;;;0.60;;
25349;SDS011;13302;48.796;11.978;2024-02-23T14:20:09;1.70;;;0.90;;
25349;SDS011;13302;48.796;11.978;2024-02-23T14:22:56;0.77;;;0.67;;
25349;SDS011;13302;48.796;11.978;2024-02-23T14:25:44;1.53;;;1.00;;
25349;SDS011;13302;48.796;11.978;2024-02-23T14:28:31;0.70;;;0.70;;
25349;SDS011;13302;48.796;11.978;2024-02-23T14:31:18;1.17;;;0.73;;
25349;SDS011;13302;48.796;11.978;2024-02-23T14:34:05;1.73;;;0.50;;
25349;SDS011;13302;48.796;11.978;2024-02-23T14:36:52;1.13;;;0.60;;
25349;SDS011;13302;48.796;11.978;2024-02-23T14:39:39;1.27;;;0.53;;
25349;SDS011;13302;48.796;11.978;2024-02-23T14:42:29;0.87;;;0.70;;
25349;SDS011;13302;48.796;11.978;2024-02-23T14:45:16;0.87;;;0.57;;
25349;SDS011;13302;48.796;11.978;2024-02-23T14:48:03;0.93;;;0.47;;
25349;SDS011;13302;48.796;11.978;2024-02-23T14:50:51;0.40;;;0.40;;
25349;SDS011;13302;48.796;11.978;2024-02-23T14:53:39;0.83;;;0.73;;
25349;SDS011;13302;48.796;11.978;2024-02-23T14:56:26;0.67;;;0.67;;
25349;SDS011;13302;48.796;11.978;2024-02-23T14:59:13;0.70;;;0.70;;
25349;SDS011;13302;48.796;11.978;2024-02-23T15:02:00;0.70;;;0.70;;
25349;SDS011;13302;48.796;11.978;2024-02-23T15:04:47;0.80;;;0.80;;
25349;SDS011;13302;48.796;11.978;2024-02-23T15:07:36;0.70;;;0.70;;
25349;SDS011;13302;48.796;11.978;2024-02-23T15:10:24;0.50;;;0.50;;
25349;SDS011;13302;48.796;11.978;2024-02-23T15:13:11;0.63;;;0.50;;
25349;SDS011;13302;48.796;11.978;2024-02-23T15:15:58;0.57;;;0.50;;
25349;SDS011;13302;48.796;11.978;2024-02-23T15:18:46;1.90;;;0.67;;
25349;SDS011;13302;48.796;11.978;2024-02-23T15:21:33;0.73;;;0.70;;
25349;SDS011;13302;48.796;11.978;2024-02-23T15:24:26;0.47;;;0.40;;
25349;SDS011;13302;48.796;11.978;2024-02-23T15:27:14;0.60;;;0.60;;
25349;SDS011;13302;48.796;11.978;2024-02-23T15:30:05;1.27;;;0.60;;
25349;SDS011;13302;48.796;11.978;2024-02-23T15:32:55;0.50;;;0.50;;
25349;SDS011;13302;48.796;11.978;2024-02-23T15:35:43;0.73;;;0.50;;
25349;SDS011;13302;48.796;11.978;2024-02-23T15:38:30;0.60;;;0.60;;
25349;SDS011;13302;48.796;11.978;2024-02-23T15:41:17;0.63;;;0.63;;
25349;SDS011;13302;48.796;11.978;2024-02-23T15:44:04;0.73;;;0.70;;
25349;SDS011;13302;48.796;11.978;2024-02-23T15:46:52;0.60;;;0.60;;
25349;SDS011;13302;48.796;11.978;2024-02-23T15:49:39;0.50;;;0.50;;
25349;SDS011;13302;48.796;11.978;2024-02-23T15:52:47;0.57;;;0.57;;
25349;SDS011;13302;48.796;11.978;2024-02-23T15:55:34;0.40;;;0.40;;
25349;SDS011;13302;48.796;11.978;2024-02-23T15:58:23;0.47;;;0.47;;
25349;SDS011;13302;48.796;11.978;2024-02-23T16:01:10;0.63;;;0.63;;
25349;SDS011;13302;48.796;11.978;2024-02-23T16:03:57;0.57;;;0.57;;
25349;SDS011;13302;48.796;11.978;2024-02-23T16:06:45;0.40;;;0.40;;
25349;SDS011;13302;48.796;11.978;2024-02-23T16:09:32;1.10;;;0.60;;
25349;SDS011;13302;48.796;11.978;2024-02-23T16:12:19;0.50;;;0.50;;
25349;SDS011;13302;48.796;11.978;2024-02-23T16:15:07;1.77;;;0.40;;
25349;SDS011;13302;48.796;11.978;2024-02-23T16:17:55;0.60;;;0.60;;
25349;SDS011;13302;48.796;11.978;2024-02-23T16:20:43;0.60;;;0.60;;
25349;SDS011;13302;48.796;11.978;2024-02-23T16:23:30;1.80;;;0.70;;
25349;SDS011;13302;48.796;11.978;2024-02-23T16:26:17;0.40;;;0.40;;
25349;SDS011;13302;48.796;11.978;2024-02-23T16:29:05;0.50;;;0.50;;
25349;SDS011;13302;48.796;11.978;2024-02-23T16:31:53;0.90;;;0.83;;
25349;SDS011;13302;48.796;11.978;2024-02-23T16:34:40;0.40;;;0.40;;